Solidat — UBEE — position and weather

sailwx.info

Track history (hours):
 
Tides and Currents Weather Stations Pressure Air Temp Water Temp Dewpoint Dewpoint Depression Visibility Wind Speed Wind Dir Waves Ship Positions

Solidat

Last reported at 2018-Jun-20 14:38 UTC. Time now 2018-Jun-21 08:45 UTC.
Position N 44°21' E 033°42'.

Length 83 m; draft 3.9 m.

Type: Cargo ship. MMSI: 273327300.

Date/timePositionNaut miles runAvg speedWind from/ knotsBaromVisibWave heightAir tempDewpointWater temp
2018-Jun-20 14:38N 44°21' E 033°42'2 5.1
2018-Jun-20 14:18N 44°21' E 033°44'2 5.5
2018-Jun-20 13:59N 44°21' E 033°47'3 5.5
2018-Jun-20 13:28N 44°21' E 033°51'117 5.5
2018-Jun-19 15:58N 44°59' E 036°27'1 3.1
2018-Jun-19 15:30N 44°58' E 036°29'46 3.8
2018-Jun-19 03:21N 44°38' E 037°28'1 3.9
2018-Jun-19 02:59N 44°37' E 037°29'2 3.9
2018-Jun-19 02:30N 44°36' E 037°31'2 3.7
2018-Jun-19 01:59N 44°35' E 037°34'2 3.9
2018-Jun-19 01:30N 44°35' E 037°36'2 4.0
2018-Jun-19 01:00N 44°35' E 037°39'2 4.1
2018-Jun-19 00:30N 44°35' E 037°42'2 4.1
2018-Jun-19 00:00N 44°35' E 037°45'2 3.5
2018-Jun-18 23:30N 44°36' E 037°47'2 3.8
2018-Jun-18 23:00N 44°38' E 037°49'2 4.1
2018-Jun-18 22:30N 44°39' E 037°50'3 6.1
2018-Jun-18 22:00N 44°42' E 037°49'1 1.8
2018-Jun-18 21:30N 44°43' E 037°49'0 0.0
2018-Jun-18 21:00N 44°43' E 037°49'0 0.0
2018-Jun-18 20:30N 44°43' E 037°49'0 0.0
2018-Jun-18 20:00N 44°43' E 037°49'0 0.0
2018-Jun-18 19:30N 44°43' E 037°49'0 0.0
2018-Jun-18 19:00N 44°43' E 037°49'0 0.0
2018-Jun-18 18:30N 44°43' E 037°49'0 0.0
2018-Jun-18 18:00N 44°43' E 037°49'0 0.0
2018-Jun-18 17:30N 44°43' E 037°49'0 0.0
2018-Jun-18 17:00N 44°43' E 037°49'0 0.0
2018-Jun-18 16:30N 44°43' E 037°49'0 0.0
2018-Jun-18 16:00N 44°43' E 037°49'0 0.0
2018-Jun-18 15:30N 44°43' E 037°49'0 0.0
2018-Jun-18 15:00N 44°43' E 037°49'1 1.7
2018-Jun-18 14:30N 44°42' E 037°49'3 6.0
2018-Jun-18 14:00N 44°40' E 037°51'3 5.3
2018-Jun-18 13:30N 44°37' E 037°51'3 5.2
2018-Jun-18 13:00N 44°36' E 037°48'3 5.5
2018-Jun-18 12:30N 44°36' E 037°44'3 5.7
2018-Jun-18 12:00N 44°36' E 037°41'3 5.8
2018-Jun-18 11:29N 44°36' E 037°36'3 5.7
2018-Jun-18 11:00N 44°35' E 037°33'3 5.3
2018-Jun-18 10:27N 44°37' E 037°29'  
2018-Jun-16 00:47N 44°24' E 033°37'4 3.8
2018-Jun-15 23:44N 44°22' E 033°42'15 3.7
2018-Jun-15 19:39N 44°21' E 034°02'1 4.2
2018-Jun-15 19:30N 44°21' E 034°03'20 4.6
2018-Jun-15 15:07N 44°32' E 034°26'1 4.0
2018-Jun-15 14:48N 44°33' E 034°28'2 4.1
2018-Jun-15 14:22N 44°34' E 034°30'2 3.9
2018-Jun-15 13:58N 44°35' E 034°32'3 3.7
2018-Jun-15 13:17N 44°36' E 034°35'1 3.7
2018-Jun-15 13:00N 44°36' E 034°36'2 3.7
2018-Jun-15 12:28N 44°37' E 034°38'68 4.1
2018-Jun-14 19:52N 44°57' E 036°11'2 4.0
2018-Jun-14 19:24N 44°58' E 036°13'2 4.0
2018-Jun-14 19:00N 44°58' E 036°15'3 4.0
2018-Jun-14 18:14N 44°59' E 036°19'1 4.0
2018-Jun-14 18:00N 44°59' E 036°21'2 3.4
2018-Jun-14 17:30N 45°00' E 036°23'0 0.6
2018-Jun-14 17:00N 45°00' E 036°23'0 0.0
2018-Jun-14 16:30N 45°00' E 036°23'0 0.0
2018-Jun-14 16:00N 45°00' E 036°23'0 0.0
2018-Jun-14 15:30N 45°00' E 036°23'0 0.0
2018-Jun-14 15:00N 45°00' E 036°23'0 0.0
2018-Jun-14 14:30N 45°00' E 036°23'0 0.0
2018-Jun-14 12:10N 45°00' E 036°23'0 0.0
2018-Jun-14 11:55N 45°00' E 036°23'0 0.3
2018-Jun-14 10:37N 45°00' E 036°24'1 3.8
2018-Jun-14 10:25N 44°60' E 036°25'2 4.3
2018-Jun-14 10:00N 44°59' E 036°27'2 4.4
2018-Jun-14 09:30N 44°59' E 036°30'43 3.8
2018-Jun-13 22:06N 44°39' E 037°25'1 3.9
2018-Jun-13 21:54N 44°39' E 037°26'2 3.8
2018-Jun-13 21:30N 44°38' E 037°27'2 3.9
2018-Jun-13 21:00N 44°37' E 037°29'2 3.8
2018-Jun-13 20:28N 44°35' E 037°32'2 3.6
2018-Jun-13 20:00N 44°35' E 037°34'2 3.7
2018-Jun-13 19:30N 44°35' E 037°36'2 3.6
2018-Jun-13 19:00N 44°35' E 037°39'2 3.5
2018-Jun-13 18:30N 44°34' E 037°41'2 3.6
2018-Jun-13 18:00N 44°34' E 037°44'2 3.3
2018-Jun-13 17:30N 44°35' E 037°46'2 3.6
2018-Jun-13 17:00N 44°37' E 037°47'2 4.3
2018-Jun-13 16:30N 44°38' E 037°49'2 4.4
2018-Jun-13 16:00N 44°40' E 037°50'2 4.8
2018-Jun-13 15:30N 44°43' E 037°48'1 1.7
2018-Jun-13 15:00N 44°43' E 037°49'0 0.0
2018-Jun-13 14:30N 44°43' E 037°49'0 0.0
2018-Jun-13 14:00N 44°43' E 037°49'0 0.0
2018-Jun-13 13:30N 44°43' E 037°49'0 0.0
2018-Jun-13 13:00N 44°43' E 037°49'0 0.0
2018-Jun-13 12:30N 44°43' E 037°49'0 0.0
2018-Jun-13 12:00N 44°43' E 037°49'0 0.0
2018-Jun-13 11:30N 44°43' E 037°49'0 0.0
2018-Jun-13 11:00N 44°43' E 037°49'0 0.0
2018-Jun-13 10:30N 44°43' E 037°49'0 0.0
2018-Jun-13 10:00N 44°43' E 037°49'0 0.0
2018-Jun-13 09:30N 44°43' E 037°49'0 0.0
2018-Jun-13 09:00N 44°43' E 037°49'1 1.9
2018-Jun-13 08:30N 44°42' E 037°49'3 5.2
2018-Jun-13 08:00N 44°40' E 037°50'2 4.5
2018-Jun-13 07:30N 44°39' E 037°53'1 2.4
2018-Jun-13 06:58N 44°39' E 037°55'0 0.0
2018-Jun-13 06:28N 44°39' E 037°55'0 0.0
2018-Jun-13 05:58N 44°39' E 037°55'0 0.1
2018-Jun-13 05:28N 44°39' E 037°55'0 0.0
2018-Jun-13 04:58N 44°39' E 037°55'0 0.0
2018-Jun-13 04:28N 44°39' E 037°55'0 0.1
2018-Jun-13 03:58N 44°39' E 037°55'0 0.0
2018-Jun-13 03:28N 44°39' E 037°55'0 0.0
2018-Jun-13 02:58N 44°39' E 037°55'0 0.0
2018-Jun-13 02:28N 44°39' E 037°55'0 0.0
2018-Jun-13 01:58N 44°39' E 037°55'0 0.0
2018-Jun-13 01:28N 44°39' E 037°55'0 0.0
2018-Jun-13 00:55N 44°39' E 037°55'0 0.1
2018-Jun-13 00:28N 44°39' E 037°55'0 0.0
2018-Jun-12 23:58N 44°39' E 037°55'0 0.1
2018-Jun-12 23:28N 44°39' E 037°55'0 0.1
2018-Jun-12 22:58N 44°39' E 037°55'0 0.0
2018-Jun-12 22:28N 44°39' E 037°55'0 0.0
2018-Jun-12 21:58N 44°39' E 037°55'0 0.0
2018-Jun-12 21:28N 44°39' E 037°55'0 0.0
2018-Jun-12 20:58N 44°39' E 037°55'0 0.0
2018-Jun-12 20:28N 44°39' E 037°55'0 0.0
2018-Jun-12 19:55N 44°39' E 037°55'0 0.0
2018-Jun-12 19:28N 44°39' E 037°55'0 0.0
2018-Jun-12 18:58N 44°39' E 037°55'0 0.0
2018-Jun-12 18:28N 44°39' E 037°55'0 0.0
2018-Jun-12 17:58N 44°39' E 037°55'0 0.1
2018-Jun-12 17:28N 44°39' E 037°55'0 0.0
2018-Jun-12 16:58N 44°39' E 037°55'0 0.0
2018-Jun-12 16:28N 44°39' E 037°55'0 0.0
2018-Jun-12 15:58N 44°39' E 037°55'0 0.0
2018-Jun-12 15:28N 44°39' E 037°55'0 0.0
2018-Jun-12 14:58N 44°39' E 037°55'0 0.1
2018-Jun-12 14:28N 44°39' E 037°55'1 2.2
2018-Jun-12 14:00N 44°38' E 037°54'3 5.8
2018-Jun-12 13:30N 44°36' E 037°51'3 5.4
2018-Jun-12 12:59N 44°36' E 037°47'3 5.8
2018-Jun-12 12:30N 44°36' E 037°43'3 5.7
2018-Jun-12 12:00N 44°36' E 037°39'3 5.7
2018-Jun-12 11:30N 44°36' E 037°35'4 5.3
2018-Jun-12 10:45N 44°37' E 037°30'1 5.1
2018-Jun-12 10:30N 44°38' E 037°28'167 4.1
2018-Jun-10 17:25N 44°24' E 033°35'6 4.4
2018-Jun-10 16:01N 44°27' E 033°28'1 4.6
2018-Jun-10 15:51N 44°27' E 033°27'3 4.4
2018-Jun-10 15:09N 44°29' E 033°23'1 4.5
2018-Jun-10 15:00N 44°29' E 033°23'  
Track history (hours):
 
Tides and Currents Weather Stations Pressure Air Temp Water Temp Dewpoint Dewpoint Depression Visibility Wind Speed Wind Dir Waves Ship Positions

Solidat

Last reported at 2018-Jun-20 14:38 UTC. Time now 2018-Jun-21 08:45 UTC.
Position N 44°21' E 033°42'.

Length 83 m; draft 3.9 m.

Type: Cargo ship. MMSI: 273327300.

Date/timePositionNaut miles runAvg speedWind from/ knotsBaromVisibWave heightAir tempDewpointWater temp
2018-Jun-20 14:38N 44°21' E 033°42'2 5.1
2018-Jun-20 14:18N 44°21' E 033°44'2 5.5
2018-Jun-20 13:59N 44°21' E 033°47'3 5.5
2018-Jun-20 13:28N 44°21' E 033°51'117 5.5
2018-Jun-19 15:58N 44°59' E 036°27'1 3.1
2018-Jun-19 15:30N 44°58' E 036°29'46 3.8
2018-Jun-19 03:21N 44°38' E 037°28'1 3.9
2018-Jun-19 02:59N 44°37' E 037°29'2 3.9
2018-Jun-19 02:30N 44°36' E 037°31'2 3.7
2018-Jun-19 01:59N 44°35' E 037°34'2 3.9
2018-Jun-19 01:30N 44°35' E 037°36'2 4.0
2018-Jun-19 01:00N 44°35' E 037°39'2 4.1
2018-Jun-19 00:30N 44°35' E 037°42'2 4.1
2018-Jun-19 00:00N 44°35' E 037°45'2 3.5
2018-Jun-18 23:30N 44°36' E 037°47'2 3.8
2018-Jun-18 23:00N 44°38' E 037°49'2 4.1
2018-Jun-18 22:30N 44°39' E 037°50'3 6.1
2018-Jun-18 22:00N 44°42' E 037°49'1 1.8
2018-Jun-18 21:30N 44°43' E 037°49'0 0.0
2018-Jun-18 21:00N 44°43' E 037°49'0 0.0
2018-Jun-18 20:30N 44°43' E 037°49'0 0.0
2018-Jun-18 20:00N 44°43' E 037°49'0 0.0
2018-Jun-18 19:30N 44°43' E 037°49'0 0.0
2018-Jun-18 19:00N 44°43' E 037°49'0 0.0
2018-Jun-18 18:30N 44°43' E 037°49'0 0.0
2018-Jun-18 18:00N 44°43' E 037°49'0 0.0
2018-Jun-18 17:30N 44°43' E 037°49'0 0.0
2018-Jun-18 17:00N 44°43' E 037°49'0 0.0
2018-Jun-18 16:30N 44°43' E 037°49'0 0.0
2018-Jun-18 16:00N 44°43' E 037°49'0 0.0
2018-Jun-18 15:30N 44°43' E 037°49'0 0.0
2018-Jun-18 15:00N 44°43' E 037°49'1 1.7
2018-Jun-18 14:30N 44°42' E 037°49'3 6.0
2018-Jun-18 14:00N 44°40' E 037°51'3 5.3
2018-Jun-18 13:30N 44°37' E 037°51'3 5.2
2018-Jun-18 13:00N 44°36' E 037°48'3 5.5
2018-Jun-18 12:30N 44°36' E 037°44'3 5.7
2018-Jun-18 12:00N 44°36' E 037°41'3 5.8
2018-Jun-18 11:29N 44°36' E 037°36'3 5.7
2018-Jun-18 11:00N 44°35' E 037°33'3 5.3
2018-Jun-18 10:27N 44°37' E 037°29'  
2018-Jun-16 00:47N 44°24' E 033°37'4 3.8
2018-Jun-15 23:44N 44°22' E 033°42'15 3.7
2018-Jun-15 19:39N 44°21' E 034°02'1 4.2
2018-Jun-15 19:30N 44°21' E 034°03'20 4.6
2018-Jun-15 15:07N 44°32' E 034°26'1 4.0
2018-Jun-15 14:48N 44°33' E 034°28'2 4.1
2018-Jun-15 14:22N 44°34' E 034°30'2 3.9
2018-Jun-15 13:58N 44°35' E 034°32'3 3.7
2018-Jun-15 13:17N 44°36' E 034°35'1 3.7
2018-Jun-15 13:00N 44°36' E 034°36'2 3.7
2018-Jun-15 12:28N 44°37' E 034°38'68 4.1
2018-Jun-14 19:52N 44°57' E 036°11'2 4.0
2018-Jun-14 19:24N 44°58' E 036°13'2 4.0
2018-Jun-14 19:00N 44°58' E 036°15'3 4.0
2018-Jun-14 18:14N 44°59' E 036°19'1 4.0
2018-Jun-14 18:00N 44°59' E 036°21'2 3.4
2018-Jun-14 17:30N 45°00' E 036°23'0 0.6
2018-Jun-14 17:00N 45°00' E 036°23'0 0.0
2018-Jun-14 16:30N 45°00' E 036°23'0 0.0
2018-Jun-14 16:00N 45°00' E 036°23'0 0.0
2018-Jun-14 15:30N 45°00' E 036°23'0 0.0
2018-Jun-14 15:00N 45°00' E 036°23'0 0.0
2018-Jun-14 14:30N 45°00' E 036°23'0 0.0
2018-Jun-14 12:10N 45°00' E 036°23'0 0.0
2018-Jun-14 11:55N 45°00' E 036°23'0 0.3
2018-Jun-14 10:37N 45°00' E 036°24'1 3.8
2018-Jun-14 10:25N 44°60' E 036°25'2 4.3
2018-Jun-14 10:00N 44°59' E 036°27'2 4.4
2018-Jun-14 09:30N 44°59' E 036°30'43 3.8
2018-Jun-13 22:06N 44°39' E 037°25'1 3.9
2018-Jun-13 21:54N 44°39' E 037°26'2 3.8
2018-Jun-13 21:30N 44°38' E 037°27'2 3.9
2018-Jun-13 21:00N 44°37' E 037°29'2 3.8
2018-Jun-13 20:28N 44°35' E 037°32'2 3.6
2018-Jun-13 20:00N 44°35' E 037°34'2 3.7
2018-Jun-13 19:30N 44°35' E 037°36'2 3.6
2018-Jun-13 19:00N 44°35' E 037°39'2 3.5
2018-Jun-13 18:30N 44°34' E 037°41'2 3.6
2018-Jun-13 18:00N 44°34' E 037°44'2 3.3
2018-Jun-13 17:30N 44°35' E 037°46'2 3.6
2018-Jun-13 17:00N 44°37' E 037°47'2 4.3
2018-Jun-13 16:30N 44°38' E 037°49'2 4.4
2018-Jun-13 16:00N 44°40' E 037°50'2 4.8
2018-Jun-13 15:30N 44°43' E 037°48'1 1.7
2018-Jun-13 15:00N 44°43' E 037°49'0 0.0
2018-Jun-13 14:30N 44°43' E 037°49'0 0.0
2018-Jun-13 14:00N 44°43' E 037°49'0 0.0
2018-Jun-13 13:30N 44°43' E 037°49'0 0.0
2018-Jun-13 13:00N 44°43' E 037°49'0 0.0
2018-Jun-13 12:30N 44°43' E 037°49'0 0.0
2018-Jun-13 12:00N 44°43' E 037°49'0 0.0
2018-Jun-13 11:30N 44°43' E 037°49'0 0.0
2018-Jun-13 11:00N 44°43' E 037°49'0 0.0
2018-Jun-13 10:30N 44°43' E 037°49'0 0.0
2018-Jun-13 10:00N 44°43' E 037°49'0 0.0
2018-Jun-13 09:30N 44°43' E 037°49'0 0.0
2018-Jun-13 09:00N 44°43' E 037°49'1 1.9
2018-Jun-13 08:30N 44°42' E 037°49'3 5.2
2018-Jun-13 08:00N 44°40' E 037°50'2 4.5
2018-Jun-13 07:30N 44°39' E 037°53'1 2.4
2018-Jun-13 06:58N 44°39' E 037°55'0 0.0
2018-Jun-13 06:28N 44°39' E 037°55'0 0.0
2018-Jun-13 05:58N 44°39' E 037°55'0 0.1
2018-Jun-13 05:28N 44°39' E 037°55'0 0.0
2018-Jun-13 04:58N 44°39' E 037°55'0 0.0
2018-Jun-13 04:28N 44°39' E 037°55'0 0.1
2018-Jun-13 03:58N 44°39' E 037°55'0 0.0
2018-Jun-13 03:28N 44°39' E 037°55'0 0.0
2018-Jun-13 02:58N 44°39' E 037°55'0 0.0
2018-Jun-13 02:28N 44°39' E 037°55'0 0.0
2018-Jun-13 01:58N 44°39' E 037°55'0 0.0
2018-Jun-13 01:28N 44°39' E 037°55'0 0.0
2018-Jun-13 00:55N 44°39' E 037°55'0 0.1
2018-Jun-13 00:28N 44°39' E 037°55'0 0.0
2018-Jun-12 23:58N 44°39' E 037°55'0 0.1
2018-Jun-12 23:28N 44°39' E 037°55'0 0.1
2018-Jun-12 22:58N 44°39' E 037°55'0 0.0
2018-Jun-12 22:28N 44°39' E 037°55'0 0.0
2018-Jun-12 21:58N 44°39' E 037°55'0 0.0
2018-Jun-12 21:28N 44°39' E 037°55'0 0.0
2018-Jun-12 20:58N 44°39' E 037°55'0 0.0
2018-Jun-12 20:28N 44°39' E 037°55'0 0.0
2018-Jun-12 19:55N 44°39' E 037°55'0 0.0
2018-Jun-12 19:28N 44°39' E 037°55'0 0.0
2018-Jun-12 18:58N 44°39' E 037°55'0 0.0
2018-Jun-12 18:28N 44°39' E 037°55'0 0.0
2018-Jun-12 17:58N 44°39' E 037°55'0 0.1
2018-Jun-12 17:28N 44°39' E 037°55'0 0.0
2018-Jun-12 16:58N 44°39' E 037°55'0 0.0
2018-Jun-12 16:28N 44°39' E 037°55'0 0.0
2018-Jun-12 15:58N 44°39' E 037°55'0 0.0
2018-Jun-12 15:28N 44°39' E 037°55'0 0.0
2018-Jun-12 14:58N 44°39' E 037°55'0 0.1
2018-Jun-12 14:28N 44°39' E 037°55'1 2.2
2018-Jun-12 14:00N 44°38' E 037°54'3 5.8
2018-Jun-12 13:30N 44°36' E 037°51'3 5.4
2018-Jun-12 12:59N 44°36' E 037°47'3 5.8
2018-Jun-12 12:30N 44°36' E 037°43'3 5.7
2018-Jun-12 12:00N 44°36' E 037°39'3 5.7
2018-Jun-12 11:30N 44°36' E 037°35'4 5.3
2018-Jun-12 10:45N 44°37' E 037°30'1 5.1
2018-Jun-12 10:30N 44°38' E 037°28'167 4.1
2018-Jun-10 17:25N 44°24' E 033°35'6 4.4
2018-Jun-10 16:01N 44°27' E 033°28'1 4.6
2018-Jun-10 15:51N 44°27' E 033°27'3 4.4
2018-Jun-10 15:09N 44°29' E 033°23'1 4.5
2018-Jun-10 15:00N 44°29' E 033°23'  

Dump ship's entire track history